createdAt,value
2024-02-13T00:05:26.181Z,1999.9
2024-02-13T00:10:58.983Z,1999.9
2024-02-13T00:16:29.479Z,26.5
2024-02-13T00:22:01.109Z,60.8
2024-02-13T00:27:32.649Z,1999.9
2024-02-13T00:33:05.257Z,64.8
2024-02-13T00:38:36.217Z,99.2
2024-02-13T00:44:07.485Z,1999.9
2024-02-13T00:49:39.664Z,184.8
2024-02-13T00:55:11.108Z,256.9
2024-02-13T01:00:47.044Z,239.8
2024-02-13T01:06:18.356Z,255.8
2024-02-13T01:11:50.126Z,282.0
2024-02-13T01:17:28.708Z,244.1
2024-02-13T01:23:00.188Z,286.3
2024-02-13T01:28:31.712Z,301.4
2024-02-13T01:34:03.690Z,267.0
2024-02-13T01:39:34.946Z,316.5
2024-02-13T01:45:06.520Z,290.4
2024-02-13T01:50:38.350Z,287.0
2024-02-13T01:56:10.153Z,243.1
2024-02-13T02:01:45.947Z,186.6
2024-02-13T02:07:17.573Z,260.0
2024-02-13T02:12:49.054Z,382.1
2024-02-13T02:18:21.047Z,270.4
2024-02-13T02:23:53.187Z,250.5
2024-02-13T02:29:24.206Z,245.6
2024-02-13T02:34:55.750Z,180.1
2024-02-13T02:40:27.454Z,99.5
2024-02-13T02:45:58.865Z,29.4
2024-02-13T02:51:30.592Z,1999.9
2024-02-13T02:57:02.678Z,1999.9
2024-02-13T03:02:38.321Z,1999.9
2024-02-13T03:08:09.836Z,1999.9
2024-02-13T03:13:41.410Z,1999.9
2024-02-13T03:19:13.064Z,1999.9
2024-02-13T03:24:44.711Z,1999.9
2024-02-13T03:30:16.355Z,1999.9
2024-02-13T03:35:48.171Z,1999.9
2024-02-13T03:41:19.540Z,1999.9
2024-02-13T03:46:51.581Z,46.5
2024-02-13T03:52:22.958Z,1999.9
2024-02-13T03:57:54.562Z,82.2
2024-02-13T04:03:30.965Z,1999.9
2024-02-13T04:09:02.947Z,83.5
2024-02-13T04:14:33.913Z,109.0
2024-02-13T04:20:05.404Z,42.1
2024-02-13T04:25:38.003Z,1999.9
2024-02-13T04:31:08.535Z,1999.9
2024-02-13T04:36:40.205Z,137.4
2024-02-13T04:42:12.296Z,154.7
2024-02-13T04:47:43.767Z,201.9
2024-02-13T04:53:15.325Z,218.7
2024-02-13T04:58:46.754Z,283.4
2024-02-13T05:04:22.748Z,300.4
2024-02-13T05:09:54.410Z,246.6
2024-02-13T05:15:25.945Z,291.8
2024-02-13T05:20:57.723Z,242.4
2024-02-13T05:26:29.287Z,302.6
2024-02-13T05:32:00.929Z,272.8
2024-02-13T05:37:32.689Z,226.3
2024-02-13T05:43:04.458Z,304.5
2024-02-13T05:48:35.801Z,262.5
2024-02-13T05:54:07.691Z,235.2
2024-02-13T05:59:39.788Z,292.8
2024-02-13T06:05:15.131Z,273.3
2024-02-13T06:10:46.771Z,254.4
2024-02-13T06:16:18.334Z,285.3
2024-02-13T06:21:49.914Z,225.0
2024-02-13T06:27:21.547Z,225.1
2024-02-13T06:32:53.611Z,249.7
2024-02-13T06:38:24.852Z,255.4
2024-02-13T06:43:56.442Z,263.6
2024-02-13T06:49:32.500Z,266.3
2024-02-13T06:54:59.677Z,229.6
2024-02-13T07:00:31.385Z,239.4
2024-02-13T07:06:07.762Z,291.9
2024-02-13T07:11:39.032Z,255.3
2024-02-13T07:17:10.601Z,264.8
2024-02-13T07:22:42.198Z,279.3
2024-02-13T07:28:13.802Z,255.8
2024-02-13T07:33:45.891Z,225.1
2024-02-13T07:39:17.332Z,260.1
2024-02-13T07:44:49.403Z,251.3
2024-02-13T07:50:20.480Z,248.1
2024-02-13T07:55:52.037Z,216.2
2024-02-13T08:01:23.506Z,283.6
2024-02-13T08:06:59.649Z,263.2
2024-02-13T08:12:31.170Z,291.6
2024-02-13T08:18:03.088Z,239.8
2024-02-13T08:23:34.501Z,260.9
2024-02-13T08:29:06.098Z,267.8
2024-02-13T08:34:38.180Z,326.5
2024-02-13T08:40:09.357Z,260.6
2024-02-13T08:45:40.990Z,264.6
2024-02-13T08:51:12.859Z,209.3
2024-02-13T08:56:44.401Z,64.4
2024-02-13T09:02:16.043Z,207.1
2024-02-13T09:07:53.786Z,224.4
2024-02-13T09:13:25.400Z,259.3
2024-02-13T09:18:58.692Z,248.2
2024-02-13T09:24:28.838Z,245.4
2024-02-13T09:30:00.508Z,252.3
2024-02-13T09:35:32.244Z,317.5
2024-02-13T09:41:03.670Z,379.5
2024-02-13T09:46:35.325Z,275.3
2024-02-13T09:52:06.686Z,162.6
2024-02-13T09:57:38.541Z,160.6
2024-02-13T10:03:10.425Z,135.0
2024-02-13T10:08:48.557Z,75.3
2024-02-13T10:14:19.725Z,65.8
2024-02-13T10:19:51.876Z,86.5
2024-02-13T10:25:26.101Z,56.6
2024-02-13T10:30:54.629Z,45.6
2024-02-13T10:36:26.818Z,49.2
2024-02-13T10:41:59.078Z,48.8
2024-02-13T10:47:29.606Z,76.8
2024-02-13T10:53:01.790Z,63.0
2024-02-13T10:58:34.209Z,40.8
2024-02-13T11:04:04.818Z,35.0
2024-02-13T11:09:43.536Z,38.6
2024-02-13T11:15:14.216Z,86.8
2024-02-13T11:20:45.819Z,90.5
2024-02-13T11:26:17.442Z,94.5
2024-02-13T11:31:48.948Z,140.7
2024-02-13T11:37:20.688Z,112.8
2024-02-13T11:42:52.132Z,267.4
2024-02-13T11:48:24.671Z,168.7
2024-02-13T11:53:55.845Z,283.2
2024-02-13T11:59:27.059Z,371.1
2024-02-13T12:04:58.654Z,213.7
2024-02-13T12:10:34.538Z,253.2
2024-02-13T12:16:06.688Z,95.9
2024-02-13T12:21:37.995Z,103.0
2024-02-13T12:27:09.580Z,69.3
2024-02-13T12:32:41.604Z,63.6
2024-02-13T12:38:12.765Z,150.4
2024-02-13T12:43:44.455Z,238.1
2024-02-13T12:49:16.331Z,337.9
2024-02-13T12:54:48.041Z,536.0
2024-02-13T13:00:19.799Z,423.9
2024-02-13T13:05:51.400Z,466.5
2024-02-13T13:11:29.130Z,525.2
2024-02-13T13:17:00.970Z,451.4
2024-02-13T13:22:32.199Z,427.0
2024-02-13T13:28:04.122Z,204.8
2024-02-13T13:33:36.143Z,374.3
2024-02-13T13:39:07.248Z,638.4
2024-02-13T13:44:39.512Z,505.9
2024-02-13T13:50:10.501Z,754.3
2024-02-13T13:55:41.985Z,568.5
2024-02-13T14:01:13.792Z,301.2
2024-02-13T14:06:45.262Z,753.8
2024-02-13T14:12:23.268Z,736.0
2024-02-13T14:17:55.275Z,551.4
2024-02-13T14:23:26.610Z,634.4
2024-02-13T14:28:58.491Z,521.7
2024-02-13T14:34:30.011Z,429.1
2024-02-13T14:40:01.473Z,587.8
2024-02-13T14:45:33.095Z,447.2
2024-02-13T14:51:05.330Z,679.0
2024-02-13T14:56:36.359Z,473.9
2024-02-13T15:02:07.927Z,792.6
2024-02-13T15:07:39.613Z,556.1
2024-02-13T15:13:15.694Z,452.4
2024-02-13T15:18:47.751Z,452.5
2024-02-13T15:24:18.776Z,608.3
2024-02-13T15:29:50.624Z,575.8
2024-02-13T15:35:22.200Z,424.6
2024-02-13T15:40:53.794Z,577.8
2024-02-13T15:46:25.648Z,452.7
2024-02-13T15:51:57.268Z,406.0
2024-02-13T15:57:28.592Z,455.3
2024-02-13T16:03:00.284Z,496.1
2024-02-13T16:14:07.911Z,437.2
2024-02-13T16:19:40.264Z,445.4
2024-02-13T16:25:11.183Z,424.7
2024-02-13T16:30:48.528Z,360.3
2024-02-13T16:36:14.862Z,311.8
2024-02-13T16:41:46.564Z,360.5
2024-02-13T16:47:17.999Z,253.6
2024-02-13T16:52:49.264Z,174.7
2024-02-13T16:58:21.003Z,117.1
2024-02-13T17:03:52.855Z,1999.9
2024-02-13T17:09:24.198Z,1999.9
2024-02-13T17:15:02.518Z,1999.9
2024-02-13T17:20:33.880Z,1999.9
2024-02-13T17:26:05.489Z,1999.9
2024-02-13T17:31:37.119Z,1999.9
2024-02-13T17:37:09.200Z,1999.9
2024-02-13T17:42:40.526Z,1999.9
2024-02-13T17:48:12.723Z,1999.9
2024-02-13T17:53:43.696Z,1999.9
2024-02-13T17:59:15.214Z,1999.9
2024-02-13T18:04:46.785Z,1999.9
2024-02-13T18:10:18.742Z,1999.9
2024-02-13T18:15:56.486Z,1999.9
2024-02-13T18:21:28.169Z,1999.9
2024-02-13T18:26:59.988Z,1999.9
2024-02-13T18:32:31.987Z,1999.9
2024-02-13T18:38:03.123Z,1999.9
2024-02-13T18:43:35.171Z,1999.9
2024-02-13T18:49:06.639Z,1999.9
2024-02-13T18:54:37.848Z,1999.9
2024-02-13T19:00:09.708Z,1999.9
2024-02-13T19:05:41.520Z,1999.9
2024-02-13T19:11:12.640Z,1999.9
2024-02-13T19:16:50.658Z,1999.9
2024-02-13T19:22:22.594Z,1999.9
2024-02-13T19:27:53.966Z,1999.9
2024-02-13T19:33:26.207Z,1999.9
2024-02-13T19:38:57.317Z,1999.9
2024-02-13T19:44:28.963Z,1999.9
2024-02-13T19:50:01.431Z,1999.9
2024-02-13T19:55:32.609Z,1999.9
2024-02-13T20:01:03.899Z,1999.9
2024-02-13T20:06:35.667Z,1999.9
2024-02-13T20:12:07.436Z,1999.9
2024-02-13T20:17:45.550Z,1999.9
2024-02-13T20:23:16.711Z,1999.9
2024-02-13T20:28:48.337Z,1999.9
2024-02-13T20:34:20.361Z,1999.9
2024-02-13T20:39:51.664Z,1999.9
2024-02-13T20:45:24.222Z,1999.9
2024-02-13T20:50:54.921Z,1999.9
2024-02-13T20:56:26.700Z,1999.9
2024-02-13T21:01:58.115Z,1999.9
2024-02-13T21:07:36.844Z,1999.9
2024-02-13T21:13:08.251Z,1999.9
2024-02-13T21:18:44.742Z,1999.9
2024-02-13T21:24:16.105Z,1999.9
2024-02-13T21:29:47.493Z,1999.9
2024-02-13T21:35:19.094Z,1999.9
2024-02-13T21:40:51.007Z,1999.9
2024-02-13T21:46:22.330Z,1999.9
2024-02-13T21:51:54.011Z,1999.9
2024-02-13T21:57:25.652Z,1999.9
2024-02-13T22:02:57.549Z,1999.9
2024-02-13T22:08:28.929Z,1999.9
2024-02-13T22:14:00.700Z,1999.9
2024-02-13T22:19:36.826Z,1999.9
2024-02-13T22:25:08.185Z,1999.9
2024-02-13T22:30:39.778Z,1999.9
2024-02-13T22:36:11.646Z,1999.9
2024-02-13T22:41:43.116Z,1999.9
2024-02-13T22:47:14.725Z,1999.9
2024-02-13T22:52:46.427Z,1999.9
2024-02-13T22:58:17.909Z,1999.9
2024-02-13T23:03:49.551Z,1999.9
2024-02-13T23:09:21.208Z,1999.9
2024-02-13T23:14:52.963Z,1999.9
2024-02-13T23:20:30.898Z,1999.9
2024-02-13T23:26:02.747Z,1999.9
2024-02-13T23:31:34.966Z,1999.9
2024-02-13T23:37:05.667Z,1999.9
2024-02-13T23:42:37.331Z,1999.9
2024-02-13T23:48:09.369Z,1999.9
2024-02-13T23:53:40.973Z,1999.9
2024-02-13T23:59:12.320Z,1999.9
